createdAt,value
2019-05-25T00:00:28.901Z,54.17
2019-05-25T00:02:55.421Z,54.25
2019-05-25T00:05:22.170Z,54.02
2019-05-25T00:07:48.514Z,54.43
2019-05-25T00:10:15.311Z,54.43
2019-05-25T00:12:41.687Z,54.58
2019-05-25T00:15:08.629Z,54.89
2019-05-25T00:17:34.983Z,54.40
2019-05-25T00:20:01.705Z,54.75
2019-05-25T00:22:30.907Z,54.57
2019-05-25T00:24:57.423Z,54.90
2019-05-25T00:27:24.083Z,54.33
2019-05-25T00:29:50.897Z,54.19
2019-05-25T00:32:17.404Z,54.18
2019-05-25T00:34:43.898Z,54.73
2019-05-25T00:37:10.459Z,54.98
2019-05-25T00:39:36.977Z,55.01
2019-05-25T00:42:03.357Z,54.80
2019-05-25T00:44:29.703Z,53.99
2019-05-25T00:46:56.049Z,54.20
2019-05-25T00:49:22.808Z,53.81
2019-05-25T00:51:49.227Z,53.21
2019-05-25T00:54:27.440Z,53.18
2019-05-25T00:56:44.919Z,54.06
2019-05-25T00:59:11.255Z,54.65
2019-05-25T01:01:37.606Z,54.84
2019-05-25T01:04:03.985Z,55.14
2019-05-25T01:06:30.327Z,55.38
2019-05-25T01:08:56.682Z,54.94
2019-05-25T01:11:23.346Z,55.70
2019-05-25T01:13:49.699Z,56.25
2019-05-25T01:16:16.044Z,54.21
2019-05-25T01:18:42.393Z,54.00
2019-05-25T01:21:08.722Z,53.91
2019-05-25T01:23:35.405Z,53.05
2019-05-25T01:26:01.737Z,52.88
2019-05-25T01:28:28.088Z,53.35
2019-05-25T01:30:54.410Z,53.37
2019-05-25T01:33:21.046Z,53.63
2019-05-25T01:35:47.414Z,53.85
2019-05-25T01:38:13.745Z,54.69
2019-05-25T01:40:40.444Z,55.13
2019-05-25T01:43:07.798Z,56.31
2019-05-25T01:45:34.136Z,56.74
2019-05-25T01:48:00.455Z,57.47
2019-05-25T01:50:26.852Z,58.01
2019-05-25T01:52:53.189Z,59.07
2019-05-25T01:55:21.409Z,60.21
2019-05-25T01:57:49.718Z,60.53
2019-05-25T02:00:23.693Z,61.15
2019-05-25T02:02:50.038Z,61.17
2019-05-25T02:05:17.065Z,61.02
2019-05-25T02:07:43.409Z,60.87
2019-05-25T02:10:10.619Z,60.27
2019-05-25T02:12:36.970Z,60.69
2019-05-25T02:15:09.281Z,60.64
2019-05-25T02:17:35.664Z,60.40
2019-05-25T02:20:05.714Z,59.25
2019-05-25T02:22:32.046Z,59.28
2019-05-25T02:24:58.396Z,59.05
2019-05-25T02:27:24.774Z,60.49
2019-05-25T02:29:51.140Z,60.88
2019-05-25T02:32:17.460Z,61.21
2019-05-25T02:34:44.662Z,61.25
2019-05-25T02:37:11.157Z,61.19
2019-05-25T02:39:37.483Z,61.28
2019-05-25T02:42:04.100Z,61.56
2019-05-25T02:44:30.464Z,60.60
2019-05-25T02:46:56.787Z,61.21
2019-05-25T02:49:23.130Z,61.28
2019-05-25T02:51:49.452Z,61.30
2019-05-25T02:54:16.151Z,61.63
2019-05-25T02:56:42.468Z,61.55
2019-05-25T02:59:08.825Z,60.83
2019-05-25T03:01:35.206Z,61.53
2019-05-25T03:04:01.518Z,61.17
2019-05-25T03:06:28.760Z,61.28
2019-05-25T03:08:55.903Z,61.48
2019-05-25T03:11:22.366Z,61.08
2019-05-25T03:13:48.913Z,61.63
2019-05-25T03:16:15.311Z,62.05
2019-05-25T03:18:41.712Z,62.20
2019-05-25T03:21:09.259Z,62.46
2019-05-25T03:23:35.596Z,62.42
2019-05-25T03:26:01.914Z,62.36
2019-05-25T03:28:28.281Z,62.61
2019-05-25T03:30:54.698Z,62.39
2019-05-25T03:33:21.068Z,61.80
2019-05-25T03:35:47.696Z,61.87
2019-05-25T03:38:14.374Z,62.26
2019-05-25T03:40:40.750Z,62.28
2019-05-25T03:43:07.177Z,62.49
2019-05-25T03:45:33.778Z,62.62
2019-05-25T03:48:00.354Z,62.74
2019-05-25T03:50:27.048Z,63.02
2019-05-25T03:52:53.425Z,62.92
2019-05-25T03:55:19.862Z,62.53
2019-05-25T03:57:46.212Z,62.20
2019-05-25T04:00:14.577Z,62.07
2019-05-25T04:02:41.163Z,62.00
2019-05-25T04:05:07.902Z,61.97
2019-05-25T04:07:34.306Z,61.71
2019-05-25T04:10:00.692Z,61.89
2019-05-25T04:12:27.537Z,61.47
2019-05-25T04:14:53.941Z,61.20
2019-05-25T04:17:20.272Z,60.64
2019-05-25T04:19:49.803Z,60.62
2019-05-25T04:22:16.265Z,60.22
2019-05-25T04:24:42.697Z,59.98
2019-05-25T04:27:09.008Z,59.46
2019-05-25T04:29:37.344Z,58.50
2019-05-25T04:32:04.017Z,57.34
2019-05-25T04:34:30.347Z,57.51
2019-05-25T04:36:56.728Z,57.60
2019-05-25T04:39:23.120Z,57.46
2019-05-25T04:41:50.552Z,56.73
2019-05-25T04:44:16.956Z,56.41
2019-05-25T04:46:43.590Z,56.54
2019-05-25T04:49:09.950Z,55.89
2019-05-25T04:51:36.284Z,53.85
2019-05-25T04:54:03.209Z,53.29
2019-05-25T04:56:39.112Z,51.60
2019-05-25T04:58:57.807Z,52.33
2019-05-25T05:01:24.129Z,51.83
2019-05-25T05:03:50.548Z,51.76
2019-05-25T05:06:16.867Z,52.11
2019-05-25T05:08:43.227Z,51.86
2019-05-25T05:11:09.559Z,51.54
2019-05-25T05:13:35.926Z,51.11
2019-05-25T05:16:04.353Z,50.27
2019-05-25T05:18:30.699Z,50.61
2019-05-25T05:20:58.195Z,50.95
2019-05-25T05:23:24.525Z,51.47
2019-05-25T05:25:50.966Z,50.86
2019-05-25T05:28:17.581Z,52.20
2019-05-25T05:30:43.948Z,52.93
2019-05-25T05:33:10.339Z,53.23
2019-05-25T05:35:39.064Z,53.43
2019-05-25T05:38:06.118Z,53.22
2019-05-25T05:40:34.405Z,54.47
2019-05-25T05:43:08.785Z,55.34
2019-05-25T05:45:41.200Z,55.62
2019-05-25T05:48:09.810Z,56.15
2019-05-25T05:50:38.558Z,55.58
2019-05-25T05:53:04.887Z,54.73
2019-05-25T05:55:31.735Z,53.85
2019-05-25T05:58:00.478Z,52.05
2019-05-25T06:00:27.054Z,51.20
2019-05-25T06:02:53.815Z,50.21
2019-05-25T06:05:20.282Z,50.50
2019-05-25T06:07:46.633Z,50.17
2019-05-25T06:10:13.278Z,50.87
2019-05-25T06:12:39.814Z,50.67
2019-05-25T06:15:06.573Z,52.38
2019-05-25T06:17:32.919Z,50.33
2019-05-25T06:19:59.364Z,49.06
2019-05-25T06:22:25.752Z,48.29
2019-05-25T06:24:52.636Z,48.04
2019-05-25T06:27:27.629Z,48.22
2019-05-25T06:29:47.269Z,47.31
2019-05-25T06:32:13.628Z,49.52
2019-05-25T06:34:40.217Z,50.31
2019-05-25T06:37:06.661Z,50.23
2019-05-25T06:39:34.348Z,48.87
2019-05-25T06:42:00.781Z,48.13
2019-05-25T06:44:27.161Z,47.71
2019-05-25T06:46:53.639Z,46.97
2019-05-25T06:49:20.211Z,46.21
2019-05-25T06:51:48.835Z,45.71
2019-05-25T06:54:15.296Z,46.36
2019-05-25T06:56:42.021Z,46.96
2019-05-25T06:59:11.370Z,47.45
2019-05-25T07:01:37.987Z,45.92
2019-05-25T07:04:04.378Z,46.64
2019-05-25T07:06:30.750Z,45.77
2019-05-25T07:08:57.116Z,44.21
2019-05-25T07:11:23.495Z,43.65
2019-05-25T07:13:49.857Z,45.56
2019-05-25T07:16:16.253Z,46.15
2019-05-25T07:18:42.641Z,45.93
2019-05-25T07:21:09.278Z,46.08
2019-05-25T07:23:35.972Z,46.01
2019-05-25T07:26:03.437Z,44.19
2019-05-25T07:28:30.913Z,42.39
2019-05-25T07:30:57.245Z,41.41
2019-05-25T07:33:23.706Z,41.86
2019-05-25T07:35:51.956Z,42.03
2019-05-25T07:38:18.326Z,42.39
2019-05-25T07:40:44.704Z,41.56
2019-05-25T07:43:11.363Z,40.65
2019-05-25T07:45:37.729Z,41.05
2019-05-25T07:48:04.090Z,42.26
2019-05-25T07:50:30.458Z,41.77
2019-05-25T07:52:56.788Z,40.74
2019-05-25T07:55:24.181Z,40.06
2019-05-25T07:57:50.616Z,39.55
2019-05-25T08:00:17.350Z,39.58
2019-05-25T08:02:43.897Z,41.62
2019-05-25T08:05:11.754Z,40.50
2019-05-25T08:07:38.134Z,40.85
2019-05-25T08:10:05.361Z,40.95
2019-05-25T08:12:32.842Z,40.53
2019-05-25T08:15:10.146Z,39.79
2019-05-25T08:17:36.592Z,41.61
2019-05-25T08:20:07.461Z,41.78
2019-05-25T08:22:34.254Z,41.37
2019-05-25T08:25:09.656Z,40.09
2019-05-25T08:27:36.140Z,39.75
2019-05-25T08:30:07.291Z,40.33
2019-05-25T08:32:33.795Z,39.49
2019-05-25T08:35:00.126Z,39.65
2019-05-25T08:37:26.920Z,39.22
2019-05-25T08:39:53.271Z,38.30
2019-05-25T08:42:19.649Z,37.81
2019-05-25T08:44:46.011Z,35.93
2019-05-25T08:47:12.499Z,35.28
2019-05-25T08:49:38.859Z,34.82
2019-05-25T08:52:06.296Z,35.38
2019-05-25T08:54:32.632Z,33.90
2019-05-25T08:56:58.987Z,34.40
2019-05-25T08:59:25.346Z,33.46
2019-05-25T09:01:53.665Z,34.61
2019-05-25T09:04:19.985Z,35.12
2019-05-25T09:06:46.380Z,37.77
2019-05-25T09:09:12.709Z,38.87
2019-05-25T09:11:39.061Z,38.61
2019-05-25T09:14:05.389Z,40.04
2019-05-25T09:16:32.146Z,39.83
2019-05-25T09:18:58.857Z,40.34
2019-05-25T09:21:25.401Z,41.26
2019-05-25T09:23:51.835Z,41.48
2019-05-25T09:26:18.277Z,41.67
2019-05-25T09:28:44.613Z,40.37
2019-05-25T09:31:11.249Z,40.80
2019-05-25T09:33:37.936Z,39.42
2019-05-25T09:36:04.390Z,39.69
2019-05-25T09:38:31.067Z,40.33
2019-05-25T09:40:57.785Z,39.79
2019-05-25T09:43:24.439Z,40.35
2019-05-25T09:45:54.645Z,40.32
2019-05-25T09:48:21.153Z,39.69
2019-05-25T09:50:47.533Z,38.07
2019-05-25T09:53:13.925Z,38.06
2019-05-25T09:55:45.563Z,37.30
2019-05-25T09:58:12.145Z,38.29
2019-05-25T10:00:45.006Z,37.11
2019-05-25T10:03:31.652Z,38.40
2019-05-25T10:05:58.221Z,37.45
2019-05-25T10:08:24.829Z,35.96
2019-05-25T10:10:51.168Z,34.65
2019-05-25T10:13:17.600Z,33.62
2019-05-25T10:15:44.124Z,33.97
2019-05-25T10:18:10.522Z,33.31
2019-05-25T10:20:37.294Z,33.82
2019-05-25T10:23:05.506Z,34.02
2019-05-25T10:25:32.320Z,33.44
2019-05-25T10:27:58.707Z,32.34
2019-05-25T10:30:25.136Z,33.83
2019-05-25T10:32:51.901Z,34.01
2019-05-25T10:35:18.742Z,34.50
2019-05-25T10:37:45.316Z,35.10
2019-05-25T10:40:12.206Z,33.57
2019-05-25T10:42:39.969Z,33.70
2019-05-25T10:45:08.506Z,36.22
2019-05-25T10:47:34.978Z,36.63
2019-05-25T10:50:08.611Z,35.96
2019-05-25T10:52:34.993Z,35.14
2019-05-25T10:55:02.175Z,34.33
2019-05-25T10:57:28.912Z,34.51
2019-05-25T10:59:55.281Z,34.83
2019-05-25T11:02:21.604Z,34.98
2019-05-25T11:04:48.219Z,35.11
2019-05-25T11:07:14.865Z,33.70
2019-05-25T11:09:41.375Z,32.38
2019-05-25T11:12:07.717Z,34.50
2019-05-25T11:14:34.053Z,35.11
2019-05-25T11:17:00.429Z,35.13
2019-05-25T11:19:26.775Z,35.48
2019-05-25T11:21:53.591Z,33.30
2019-05-25T11:24:20.080Z,34.36
2019-05-25T11:26:46.426Z,32.46
2019-05-25T11:29:12.779Z,31.43
2019-05-25T11:31:40.319Z,31.90
2019-05-25T11:34:06.675Z,33.31
2019-05-25T11:36:34.149Z,32.56
2019-05-25T11:39:01.596Z,31.29
2019-05-25T11:41:29.274Z,32.29
2019-05-25T11:43:57.327Z,31.86
2019-05-25T11:46:24.861Z,31.69
2019-05-25T11:48:51.251Z,31.14
2019-05-25T11:51:17.930Z,31.61
2019-05-25T11:53:44.301Z,31.30
2019-05-25T11:56:10.623Z,30.43
2019-05-25T11:58:47.069Z,30.56
2019-05-25T12:01:05.445Z,29.34
2019-05-25T12:03:31.941Z,25.67
2019-05-25T12:05:58.302Z,23.49
2019-05-25T12:08:24.647Z,22.46
2019-05-25T12:10:51.011Z,22.89
2019-05-25T12:13:17.335Z,24.02
2019-05-25T12:15:43.742Z,25.84
2019-05-25T12:18:10.450Z,28.03
2019-05-25T12:20:36.902Z,27.89
2019-05-25T12:23:04.059Z,29.04
2019-05-25T12:25:31.012Z,28.81
2019-05-25T12:27:57.381Z,27.21
2019-05-25T12:30:39.428Z,28.74
2019-05-25T12:32:53.294Z,27.61
2019-05-25T12:35:19.729Z,25.65
2019-05-25T12:37:53.506Z,25.19
2019-05-25T12:40:21.158Z,23.75
2019-05-25T12:42:47.500Z,19.62
2019-05-25T12:45:14.084Z,17.28
2019-05-25T12:47:40.681Z,17.07
2019-05-25T12:50:07.474Z,17.73
2019-05-25T12:52:33.937Z,16.60
2019-05-25T12:55:01.238Z,15.13
2019-05-25T12:57:27.568Z,15.99
2019-05-25T12:59:53.919Z,16.21
2019-05-25T13:02:22.608Z,19.52
2019-05-25T13:05:15.881Z,22.59
2019-05-25T13:07:43.050Z,24.29
2019-05-25T13:10:10.714Z,23.30
2019-05-25T13:12:37.148Z,22.42
2019-05-25T13:15:06.319Z,21.45
2019-05-25T13:17:32.646Z,18.53
2019-05-25T13:19:59.154Z,16.89
2019-05-25T13:22:26.605Z,16.38
2019-05-25T13:24:53.282Z,17.60
2019-05-25T13:27:19.947Z,17.91
2019-05-25T13:29:46.582Z,18.90
2019-05-25T13:32:12.918Z,24.44
2019-05-25T13:34:39.248Z,24.12
2019-05-25T13:37:05.696Z,22.90
2019-05-25T13:39:33.685Z,24.19
2019-05-25T13:42:00.022Z,24.34
2019-05-25T13:44:26.834Z,24.66
2019-05-25T13:46:53.321Z,23.92
2019-05-25T13:49:19.939Z,21.99
2019-05-25T13:51:50.670Z,20.10
2019-05-25T13:54:17.464Z,20.69
2019-05-25T13:56:44.109Z,21.65
2019-05-25T13:59:13.448Z,20.13
2019-05-25T14:01:39.837Z,20.27
2019-05-25T14:04:06.492Z,21.43
2019-05-25T14:06:33.205Z,21.09
2019-05-25T14:08:59.548Z,20.77
2019-05-25T14:11:27.004Z,21.01
2019-05-25T14:13:53.438Z,22.92
2019-05-25T14:16:19.808Z,24.52
2019-05-25T14:18:46.682Z,25.02
2019-05-25T14:21:13.363Z,23.06
2019-05-25T14:23:40.812Z,21.46
2019-05-25T14:26:08.203Z,22.12
2019-05-25T14:28:34.596Z,22.43
2019-05-25T14:31:00.905Z,25.75
2019-05-25T14:33:27.292Z,24.70
2019-05-25T14:35:55.632Z,24.95
2019-05-25T14:38:22.325Z,27.89
2019-05-25T14:40:48.675Z,26.49
2019-05-25T14:43:14.983Z,29.16
2019-05-25T14:45:43.221Z,31.93
2019-05-25T14:48:09.571Z,32.70
2019-05-25T14:50:36.400Z,29.11
2019-05-25T14:53:04.688Z,25.58
2019-05-25T14:55:31.006Z,23.84
2019-05-25T14:57:57.436Z,23.06
2019-05-25T15:00:25.317Z,22.07
2019-05-25T15:02:52.029Z,20.57
2019-05-25T15:05:18.682Z,18.23
2019-05-25T15:07:46.467Z,18.05
2019-05-25T15:10:13.836Z,18.21
2019-05-25T15:12:40.145Z,20.72
2019-05-25T15:15:07.430Z,18.59
2019-05-25T15:17:37.251Z,19.99
2019-05-25T15:20:10.755Z,20.26
2019-05-25T15:22:37.554Z,19.73
2019-05-25T15:25:10.951Z,19.38
2019-05-25T15:27:38.628Z,18.08
2019-05-25T15:30:06.484Z,20.30
2019-05-25T15:32:32.853Z,20.02
2019-05-25T15:35:00.015Z,19.51
2019-05-25T15:37:26.784Z,18.68
2019-05-25T15:39:53.176Z,19.57
2019-05-25T15:42:19.504Z,19.61
2019-05-25T15:44:46.071Z,23.48
2019-05-25T15:47:12.462Z,23.83
2019-05-25T15:49:41.164Z,24.65
2019-05-25T15:52:07.834Z,24.78
2019-05-25T15:54:34.181Z,21.24
2019-05-25T15:57:00.844Z,22.45
2019-05-25T15:59:27.157Z,21.67
2019-05-25T16:01:53.487Z,21.63
2019-05-25T16:04:19.821Z,23.27
2019-05-25T16:06:46.177Z,24.11
2019-05-25T16:09:12.945Z,21.76
2019-05-25T16:11:39.310Z,24.65
2019-05-25T16:14:07.602Z,22.06
2019-05-25T16:16:33.915Z,21.18
2019-05-25T16:19:00.255Z,22.23
2019-05-25T16:21:27.900Z,22.83
2019-05-25T16:23:54.349Z,22.47
2019-05-25T16:26:20.714Z,22.70
2019-05-25T16:28:47.356Z,21.33
2019-05-25T16:31:13.713Z,19.98
2019-05-25T16:33:40.175Z,17.99
2019-05-25T16:36:06.955Z,17.93
2019-05-25T16:38:33.291Z,20.07
2019-05-25T16:41:00.925Z,24.05
2019-05-25T16:43:27.253Z,24.15
2019-05-25T16:46:26.382Z,24.36
2019-05-25T16:48:53.848Z,25.29
2019-05-25T16:51:21.234Z,26.57
2019-05-25T16:53:47.565Z,23.94
2019-05-25T16:56:13.899Z,23.58
2019-05-25T16:58:40.228Z,24.66
2019-05-25T17:01:06.561Z,24.76
2019-05-25T17:03:33.560Z,25.18
2019-05-25T17:05:59.941Z,26.51
2019-05-25T17:08:31.844Z,26.91
2019-05-25T17:11:00.776Z,29.20
2019-05-25T17:13:27.123Z,30.99
2019-05-25T17:15:53.526Z,28.08
2019-05-25T17:18:19.968Z,25.23
2019-05-25T17:20:47.183Z,25.60
2019-05-25T17:23:13.845Z,24.52
2019-05-25T17:25:41.408Z,25.39
2019-05-25T17:28:09.034Z,26.16
2019-05-25T17:30:44.532Z,25.76
2019-05-25T17:33:11.704Z,26.89
2019-05-25T17:35:41.194Z,27.19
2019-05-25T17:38:08.428Z,27.96
2019-05-25T17:40:34.899Z,26.59
2019-05-25T17:43:01.453Z,26.86
2019-05-25T17:45:27.772Z,26.06
2019-05-25T17:47:54.109Z,24.52
2019-05-25T17:50:20.544Z,25.51
2019-05-25T17:52:46.975Z,25.39
2019-05-25T17:55:14.708Z,25.13
2019-05-25T17:57:41.686Z,25.64
2019-05-25T18:00:08.943Z,26.40
2019-05-25T18:02:35.279Z,27.88
2019-05-25T18:05:02.810Z,28.44
2019-05-25T18:07:29.160Z,28.84
2019-05-25T18:09:55.833Z,30.18
2019-05-25T18:12:22.193Z,30.46
2019-05-25T18:14:48.493Z,31.22
2019-05-25T18:17:14.813Z,32.98
2019-05-25T18:19:41.186Z,36.01
2019-05-25T18:22:07.551Z,38.26
2019-05-25T18:24:33.964Z,40.00
2019-05-25T18:27:00.838Z,40.52
2019-05-25T18:29:27.212Z,41.39
2019-05-25T18:31:53.649Z,41.70
2019-05-25T18:34:22.404Z,41.79
2019-05-25T18:36:48.512Z,42.47
2019-05-25T18:39:14.894Z,42.90
2019-05-25T18:41:41.223Z,43.52
2019-05-25T18:44:07.663Z,43.87
2019-05-25T18:46:34.026Z,44.67
2019-05-25T18:49:01.605Z,44.97
2019-05-25T18:51:28.264Z,44.70
2019-05-25T18:53:55.060Z,45.12
2019-05-25T18:56:21.497Z,44.80
2019-05-25T18:58:47.904Z,45.25
2019-05-25T19:01:15.491Z,45.17
2019-05-25T19:03:42.304Z,44.92
2019-05-25T19:06:08.847Z,45.24
2019-05-25T19:08:35.591Z,45.53
2019-05-25T19:11:01.985Z,45.10
2019-05-25T19:13:28.445Z,45.41
2019-05-25T19:15:54.787Z,45.10
2019-05-25T19:18:21.282Z,45.32
2019-05-25T19:20:47.602Z,45.60
2019-05-25T19:23:13.944Z,46.24
2019-05-25T19:25:40.281Z,46.58
2019-05-25T19:28:06.614Z,46.90
2019-05-25T19:30:33.308Z,47.32
2019-05-25T19:32:59.746Z,47.94
2019-05-25T19:35:26.093Z,48.70
2019-05-25T19:37:52.447Z,49.09
2019-05-25T19:40:19.057Z,48.97
2019-05-25T19:42:49.510Z,49.90
2019-05-25T19:45:14.486Z,50.53
2019-05-25T19:47:40.861Z,51.09
2019-05-25T19:50:07.597Z,51.62
2019-05-25T19:52:33.972Z,51.72
2019-05-25T19:55:00.896Z,52.92
2019-05-25T19:57:27.252Z,52.90
2019-05-25T19:59:53.585Z,53.83
2019-05-25T20:02:19.961Z,54.50
2019-05-25T20:04:46.435Z,55.09
2019-05-25T20:07:12.938Z,55.07
2019-05-25T20:09:39.261Z,55.35
2019-05-25T20:12:05.626Z,55.56
2019-05-25T20:14:31.987Z,56.10
2019-05-25T20:16:58.687Z,56.49
2019-05-25T20:19:25.353Z,56.85
2019-05-25T20:25:28.379Z,56.50
2019-05-25T20:27:54.775Z,56.85
2019-05-25T20:30:21.166Z,56.96
2019-05-25T20:32:47.590Z,56.22
2019-05-25T20:35:14.590Z,56.14
2019-05-25T20:37:41.245Z,56.75
2019-05-25T20:40:08.769Z,56.59
2019-05-25T20:42:35.795Z,56.47
2019-05-25T20:45:07.306Z,56.98
2019-05-25T20:47:33.623Z,58.15
2019-05-25T20:50:00.282Z,58.08
2019-05-25T20:52:26.602Z,58.20
2019-05-25T20:54:52.978Z,58.77
2019-05-25T20:57:19.290Z,58.37
2019-05-25T20:59:45.642Z,58.38
2019-05-25T21:02:12.263Z,59.45
2019-05-25T21:04:38.609Z,59.48
2019-05-25T21:07:04.980Z,59.49
2019-05-25T21:09:31.332Z,59.52
2019-05-25T21:11:57.707Z,59.81
2019-05-25T21:14:24.412Z,59.21
2019-05-25T21:16:53.723Z,59.78
2019-05-25T21:19:21.921Z,60.53
2019-05-25T21:21:48.246Z,59.88
2019-05-25T21:24:14.692Z,59.32
2019-05-25T21:26:41.031Z,59.45
2019-05-25T21:29:07.391Z,59.34
2019-05-25T21:31:33.745Z,60.00
2019-05-25T21:34:01.064Z,60.62
2019-05-25T21:36:27.411Z,61.13
2019-05-25T21:38:54.161Z,61.36
2019-05-25T21:41:20.530Z,61.21
2019-05-25T21:43:46.949Z,60.59
2019-05-25T21:46:14.689Z,60.43
2019-05-25T21:48:41.304Z,60.05
2019-05-25T21:51:09.606Z,60.08
2019-05-25T21:53:35.916Z,60.41
2019-05-25T21:56:02.294Z,61.22
2019-05-25T21:58:28.921Z,61.86
2019-05-25T22:00:55.285Z,62.13
2019-05-25T22:03:23.630Z,62.00
2019-05-25T22:05:49.951Z,61.67
2019-05-25T22:08:16.256Z,61.84
2019-05-25T22:10:42.601Z,62.21
2019-05-25T22:13:24.947Z,62.14
2019-05-25T22:15:37.302Z,61.92
2019-05-25T22:18:04.229Z,62.68
2019-05-25T22:20:30.883Z,62.60
2019-05-25T22:22:57.235Z,62.49
2019-05-25T22:25:23.548Z,62.38
2019-05-25T22:27:50.322Z,61.82
2019-05-25T22:30:17.346Z,61.09
2019-05-25T22:32:43.698Z,60.80
2019-05-25T22:35:11.279Z,61.38
2019-05-25T22:37:37.692Z,61.25
2019-05-25T22:40:05.850Z,61.66
2019-05-25T22:42:32.204Z,61.02
2019-05-25T22:44:58.549Z,61.43
2019-05-25T22:47:24.865Z,61.68
2019-05-25T22:49:52.426Z,61.38
2019-05-25T22:52:18.745Z,61.30
2019-05-25T22:54:45.098Z,61.28
2019-05-25T22:57:11.406Z,61.49
2019-05-25T22:59:37.746Z,61.22
2019-05-25T23:02:23.100Z,61.50
2019-05-25T23:04:49.475Z,61.37
2019-05-25T23:07:16.211Z,60.87
2019-05-25T23:09:42.543Z,60.47
2019-05-25T23:12:10.234Z,60.46
2019-05-25T23:14:36.609Z,60.05
2019-05-25T23:17:03.544Z,60.25
2019-05-25T23:19:29.881Z,60.08
2019-05-25T23:21:56.210Z,59.49
2019-05-25T23:24:22.971Z,59.07
2019-05-25T23:26:49.313Z,59.06
2019-05-25T23:29:15.649Z,59.18
2019-05-25T23:31:41.975Z,59.32
2019-05-25T23:34:08.344Z,59.36
2019-05-25T23:36:34.667Z,59.12
2019-05-25T23:39:01.008Z,59.44
2019-05-25T23:41:27.684Z,59.39
2019-05-25T23:43:54.048Z,59.89
2019-05-25T23:46:20.410Z,60.64
2019-05-25T23:48:47.842Z,60.85
2019-05-25T23:51:14.208Z,61.33
2019-05-25T23:53:41.551Z,61.66
2019-05-25T23:56:07.906Z,61.82
2019-05-25T23:58:34.268Z,62.53
